sensor_id;sensor_type;location;lat;lon;timestamp;P1;durP1;ratioP1;P2;durP2;ratioP2
13439;SDS011;6792;57.698;11.946;2023-03-25T00:00:21;21.77;;;4.07;;
13439;SDS011;6792;57.698;11.946;2023-03-25T00:02:51;25.97;;;4.13;;
13439;SDS011;6792;57.698;11.946;2023-03-25T00:05:20;21.10;;;3.63;;
13439;SDS011;6792;57.698;11.946;2023-03-25T00:07:50;30.33;;;3.80;;
13439;SDS011;6792;57.698;11.946;2023-03-25T00:10:20;18.97;;;3.80;;
13439;SDS011;6792;57.698;11.946;2023-03-25T00:12:49;26.93;;;4.23;;
13439;SDS011;6792;57.698;11.946;2023-03-25T00:15:19;27.07;;;4.13;;
13439;SDS011;6792;57.698;11.946;2023-03-25T00:17:49;22.60;;;3.97;;
13439;SDS011;6792;57.698;11.946;2023-03-25T00:20:18;26.30;;;4.00;;
13439;SDS011;6792;57.698;11.946;2023-03-25T00:22:47;26.33;;;3.80;;
13439;SDS011;6792;57.698;11.946;2023-03-25T00:25:22;22.47;;;4.33;;
13439;SDS011;6792;57.698;11.946;2023-03-25T00:27:51;30.73;;;3.77;;
13439;SDS011;6792;57.698;11.946;2023-03-25T00:30:20;17.73;;;3.43;;
13439;SDS011;6792;57.698;11.946;2023-03-25T00:32:49;18.37;;;3.73;;
13439;SDS011;6792;57.698;11.946;2023-03-25T00:35:19;23.37;;;4.13;;
13439;SDS011;6792;57.698;11.946;2023-03-25T00:37:51;30.13;;;4.20;;
13439;SDS011;6792;57.698;11.946;2023-03-25T00:40:25;26.83;;;4.33;;
13439;SDS011;6792;57.698;11.946;2023-03-25T00:42:58;21.67;;;3.97;;
13439;SDS011;6792;57.698;11.946;2023-03-25T00:45:27;19.33;;;3.93;;
13439;SDS011;6792;57.698;11.946;2023-03-25T00:47:57;30.20;;;4.63;;
13439;SDS011;6792;57.698;11.946;2023-03-25T00:50:27;26.20;;;4.03;;
13439;SDS011;6792;57.698;11.946;2023-03-25T00:52:56;27.27;;;4.00;;
13439;SDS011;6792;57.698;11.946;2023-03-25T00:55:25;26.13;;;3.33;;
13439;SDS011;6792;57.698;11.946;2023-03-25T00:57:55;23.87;;;4.43;;
13439;SDS011;6792;57.698;11.946;2023-03-25T01:00:24;23.13;;;4.17;;
13439;SDS011;6792;57.698;11.946;2023-03-25T01:02:53;20.57;;;3.40;;
13439;SDS011;6792;57.698;11.946;2023-03-25T01:05:22;24.67;;;3.50;;
13439;SDS011;6792;57.698;11.946;2023-03-25T01:07:52;23.40;;;4.33;;
13439;SDS011;6792;57.698;11.946;2023-03-25T01:10:21;25.10;;;3.77;;
13439;SDS011;6792;57.698;11.946;2023-03-25T01:12:51;25.73;;;3.80;;
13439;SDS011;6792;57.698;11.946;2023-03-25T01:15:20;19.40;;;4.20;;
13439;SDS011;6792;57.698;11.946;2023-03-25T01:17:49;20.57;;;4.00;;
13439;SDS011;6792;57.698;11.946;2023-03-25T01:20:18;21.40;;;3.97;;
13439;SDS011;6792;57.698;11.946;2023-03-25T01:22:47;25.90;;;4.17;;
13439;SDS011;6792;57.698;11.946;2023-03-25T01:25:17;22.03;;;3.70;;
13439;SDS011;6792;57.698;11.946;2023-03-25T01:27:46;24.80;;;3.80;;
13439;SDS011;6792;57.698;11.946;2023-03-25T01:30:15;23.17;;;4.30;;
13439;SDS011;6792;57.698;11.946;2023-03-25T01:32:44;26.53;;;3.87;;
13439;SDS011;6792;57.698;11.946;2023-03-25T01:35:13;24.07;;;3.20;;
13439;SDS011;6792;57.698;11.946;2023-03-25T01:37:43;20.73;;;4.07;;
13439;SDS011;6792;57.698;11.946;2023-03-25T01:40:15;20.20;;;3.87;;
13439;SDS011;6792;57.698;11.946;2023-03-25T01:42:47;21.03;;;3.53;;
13439;SDS011;6792;57.698;11.946;2023-03-25T01:45:20;21.43;;;3.80;;
13439;SDS011;6792;57.698;11.946;2023-03-25T01:48:00;16.60;;;3.03;;
13439;SDS011;6792;57.698;11.946;2023-03-25T01:50:32;19.37;;;3.33;;
13439;SDS011;6792;57.698;11.946;2023-03-25T01:53:03;19.00;;;3.67;;
13439;SDS011;6792;57.698;11.946;2023-03-25T01:55:33;25.90;;;3.50;;
13439;SDS011;6792;57.698;11.946;2023-03-25T01:58:05;23.17;;;4.20;;
13439;SDS011;6792;57.698;11.946;2023-03-25T02:00:37;24.70;;;3.93;;
13439;SDS011;6792;57.698;11.946;2023-03-25T02:03:09;29.47;;;4.20;;
13439;SDS011;6792;57.698;11.946;2023-03-25T02:05:41;18.00;;;3.60;;
13439;SDS011;6792;57.698;11.946;2023-03-25T02:08:11;14.77;;;3.77;;
13439;SDS011;6792;57.698;11.946;2023-03-25T02:10:44;19.50;;;3.50;;
13439;SDS011;6792;57.698;11.946;2023-03-25T02:13:14;28.03;;;3.80;;
13439;SDS011;6792;57.698;11.946;2023-03-25T02:15:47;16.67;;;3.30;;
13439;SDS011;6792;57.698;11.946;2023-03-25T02:18:35;20.37;;;3.40;;
13439;SDS011;6792;57.698;11.946;2023-03-25T02:21:28;17.70;;;3.30;;
13439;SDS011;6792;57.698;11.946;2023-03-25T02:27:30;21.57;;;3.63;;
13439;SDS011;6792;57.698;11.946;2023-03-25T02:30:34;26.07;;;3.83;;
13439;SDS011;6792;57.698;11.946;2023-03-25T02:33:36;31.33;;;4.27;;
13439;SDS011;6792;57.698;11.946;2023-03-25T02:36:43;26.80;;;4.10;;
13439;SDS011;6792;57.698;11.946;2023-03-25T02:39:19;30.87;;;4.40;;
13439;SDS011;6792;57.698;11.946;2023-03-25T02:41:52;21.77;;;4.43;;
13439;SDS011;6792;57.698;11.946;2023-03-25T02:44:28;28.40;;;4.20;;
13439;SDS011;6792;57.698;11.946;2023-03-25T02:46:59;22.03;;;4.40;;
13439;SDS011;6792;57.698;11.946;2023-03-25T02:49:32;28.63;;;4.70;;
13439;SDS011;6792;57.698;11.946;2023-03-25T02:52:13;19.87;;;3.03;;
13439;SDS011;6792;57.698;11.946;2023-03-25T02:54:44;30.60;;;4.50;;
13439;SDS011;6792;57.698;11.946;2023-03-25T02:57:17;27.27;;;4.60;;
13439;SDS011;6792;57.698;11.946;2023-03-25T02:59:48;23.50;;;4.47;;
13439;SDS011;6792;57.698;11.946;2023-03-25T03:02:22;22.50;;;3.60;;
13439;SDS011;6792;57.698;11.946;2023-03-25T03:04:54;25.27;;;3.70;;
13439;SDS011;6792;57.698;11.946;2023-03-25T03:07:24;23.60;;;4.20;;
13439;SDS011;6792;57.698;11.946;2023-03-25T03:10:01;23.43;;;4.20;;
13439;SDS011;6792;57.698;11.946;2023-03-25T03:12:37;19.93;;;4.50;;
13439;SDS011;6792;57.698;11.946;2023-03-25T03:15:20;29.37;;;4.53;;
13439;SDS011;6792;57.698;11.946;2023-03-25T03:17:54;23.00;;;4.63;;
13439;SDS011;6792;57.698;11.946;2023-03-25T03:20:30;22.27;;;3.67;;
13439;SDS011;6792;57.698;11.946;2023-03-25T03:23:02;16.57;;;3.50;;
13439;SDS011;6792;57.698;11.946;2023-03-25T03:25:36;28.67;;;3.93;;
13439;SDS011;6792;57.698;11.946;2023-03-25T03:28:10;21.93;;;3.90;;
13439;SDS011;6792;57.698;11.946;2023-03-25T03:30:42;16.13;;;3.10;;
13439;SDS011;6792;57.698;11.946;2023-03-25T03:33:15;17.23;;;3.83;;
13439;SDS011;6792;57.698;11.946;2023-03-25T03:35:49;25.67;;;3.73;;
13439;SDS011;6792;57.698;11.946;2023-03-25T03:38:23;19.17;;;3.37;;
13439;SDS011;6792;57.698;11.946;2023-03-25T03:40:55;20.00;;;3.13;;
13439;SDS011;6792;57.698;11.946;2023-03-25T03:43:29;24.77;;;3.90;;
13439;SDS011;6792;57.698;11.946;2023-03-25T03:46:01;21.50;;;3.43;;
13439;SDS011;6792;57.698;11.946;2023-03-25T03:48:34;21.77;;;3.63;;
13439;SDS011;6792;57.698;11.946;2023-03-25T03:51:07;28.97;;;4.70;;
13439;SDS011;6792;57.698;11.946;2023-03-25T03:53:38;16.90;;;3.70;;
13439;SDS011;6792;57.698;11.946;2023-03-25T03:56:10;24.53;;;4.10;;
13439;SDS011;6792;57.698;11.946;2023-03-25T03:58:42;17.23;;;3.90;;
13439;SDS011;6792;57.698;11.946;2023-03-25T04:01:13;24.07;;;4.20;;
13439;SDS011;6792;57.698;11.946;2023-03-25T04:03:48;24.77;;;3.77;;
13439;SDS011;6792;57.698;11.946;2023-03-25T04:06:20;28.23;;;4.37;;
13439;SDS011;6792;57.698;11.946;2023-03-25T04:08:53;15.63;;;3.70;;
13439;SDS011;6792;57.698;11.946;2023-03-25T04:11:26;19.50;;;3.27;;
13439;SDS011;6792;57.698;11.946;2023-03-25T04:13:58;18.40;;;3.00;;
13439;SDS011;6792;57.698;11.946;2023-03-25T04:18:58;27.50;;;3.50;;
13439;SDS011;6792;57.698;11.946;2023-03-25T04:21:29;16.23;;;3.60;;
13439;SDS011;6792;57.698;11.946;2023-03-25T04:23:58;24.30;;;4.60;;
13439;SDS011;6792;57.698;11.946;2023-03-25T04:26:27;28.93;;;4.43;;
13439;SDS011;6792;57.698;11.946;2023-03-25T04:28:59;25.27;;;4.07;;
13439;SDS011;6792;57.698;11.946;2023-03-25T04:31:29;30.87;;;4.17;;
13439;SDS011;6792;57.698;11.946;2023-03-25T04:33:58;14.83;;;4.23;;
13439;SDS011;6792;57.698;11.946;2023-03-25T04:36:32;25.33;;;3.50;;
13439;SDS011;6792;57.698;11.946;2023-03-25T04:39:03;23.00;;;4.00;;
13439;SDS011;6792;57.698;11.946;2023-03-25T04:41:32;26.33;;;4.03;;
13439;SDS011;6792;57.698;11.946;2023-03-25T04:44:01;19.57;;;3.90;;
13439;SDS011;6792;57.698;11.946;2023-03-25T04:46:33;18.83;;;3.30;;
13439;SDS011;6792;57.698;11.946;2023-03-25T04:49:03;18.77;;;3.40;;
13439;SDS011;6792;57.698;11.946;2023-03-25T04:51:34;24.90;;;3.50;;
13439;SDS011;6792;57.698;11.946;2023-03-25T04:54:03;18.63;;;3.37;;
13439;SDS011;6792;57.698;11.946;2023-03-25T04:56:33;26.83;;;4.37;;
13439;SDS011;6792;57.698;11.946;2023-03-25T04:59:02;13.90;;;3.40;;
13439;SDS011;6792;57.698;11.946;2023-03-25T05:01:34;24.87;;;3.90;;
13439;SDS011;6792;57.698;11.946;2023-03-25T05:04:07;24.40;;;3.57;;
13439;SDS011;6792;57.698;11.946;2023-03-25T05:06:39;27.53;;;3.33;;
13439;SDS011;6792;57.698;11.946;2023-03-25T05:09:12;21.80;;;3.70;;
13439;SDS011;6792;57.698;11.946;2023-03-25T05:11:42;18.67;;;2.77;;
13439;SDS011;6792;57.698;11.946;2023-03-25T05:14:13;21.23;;;3.97;;
13439;SDS011;6792;57.698;11.946;2023-03-25T05:16:44;27.03;;;3.77;;
13439;SDS011;6792;57.698;11.946;2023-03-25T05:19:13;14.97;;;3.43;;
13439;SDS011;6792;57.698;11.946;2023-03-25T05:21:45;20.67;;;3.63;;
13439;SDS011;6792;57.698;11.946;2023-03-25T05:24:14;20.37;;;3.70;;
13439;SDS011;6792;57.698;11.946;2023-03-25T05:26:44;15.73;;;3.77;;
13439;SDS011;6792;57.698;11.946;2023-03-25T05:29:14;25.37;;;3.60;;
13439;SDS011;6792;57.698;11.946;2023-03-25T05:31:43;29.77;;;4.17;;
13439;SDS011;6792;57.698;11.946;2023-03-25T05:34:14;23.07;;;3.87;;
13439;SDS011;6792;57.698;11.946;2023-03-25T05:36:43;23.27;;;3.63;;
13439;SDS011;6792;57.698;11.946;2023-03-25T05:39:13;22.63;;;4.60;;
13439;SDS011;6792;57.698;11.946;2023-03-25T05:41:42;21.40;;;3.77;;
13439;SDS011;6792;57.698;11.946;2023-03-25T05:44:11;21.73;;;3.57;;
13439;SDS011;6792;57.698;11.946;2023-03-25T05:46:45;24.90;;;3.60;;
13439;SDS011;6792;57.698;11.946;2023-03-25T05:49:14;12.40;;;3.23;;
13439;SDS011;6792;57.698;11.946;2023-03-25T05:51:43;20.20;;;3.47;;
13439;SDS011;6792;57.698;11.946;2023-03-25T05:54:13;27.93;;;4.40;;
13439;SDS011;6792;57.698;11.946;2023-03-25T05:56:42;26.50;;;3.67;;
13439;SDS011;6792;57.698;11.946;2023-03-25T05:59:12;24.87;;;3.73;;
13439;SDS011;6792;57.698;11.946;2023-03-25T06:01:42;26.63;;;3.93;;
13439;SDS011;6792;57.698;11.946;2023-03-25T06:04:11;18.03;;;3.70;;
13439;SDS011;6792;57.698;11.946;2023-03-25T06:06:42;21.50;;;3.93;;
13439;SDS011;6792;57.698;11.946;2023-03-25T06:09:15;22.70;;;4.03;;
13439;SDS011;6792;57.698;11.946;2023-03-25T06:11:44;20.60;;;3.40;;
13439;SDS011;6792;57.698;11.946;2023-03-25T06:14:15;20.33;;;3.87;;
13439;SDS011;6792;57.698;11.946;2023-03-25T06:16:46;16.37;;;3.30;;
13439;SDS011;6792;57.698;11.946;2023-03-25T06:19:15;18.73;;;3.80;;
13439;SDS011;6792;57.698;11.946;2023-03-25T06:21:46;20.97;;;3.73;;
13439;SDS011;6792;57.698;11.946;2023-03-25T06:24:16;15.80;;;3.27;;
13439;SDS011;6792;57.698;11.946;2023-03-25T06:26:46;14.73;;;3.33;;
13439;SDS011;6792;57.698;11.946;2023-03-25T06:29:15;19.33;;;4.10;;
13439;SDS011;6792;57.698;11.946;2023-03-25T06:31:44;21.90;;;4.20;;
13439;SDS011;6792;57.698;11.946;2023-03-25T06:34:13;18.57;;;2.90;;
13439;SDS011;6792;57.698;11.946;2023-03-25T06:36:42;20.63;;;3.10;;
13439;SDS011;6792;57.698;11.946;2023-03-25T06:39:16;21.03;;;2.77;;
13439;SDS011;6792;57.698;11.946;2023-03-25T06:41:45;12.43;;;3.27;;
13439;SDS011;6792;57.698;11.946;2023-03-25T06:44:14;20.77;;;3.30;;
13439;SDS011;6792;57.698;11.946;2023-03-25T06:46:43;16.30;;;3.07;;
13439;SDS011;6792;57.698;11.946;2023-03-25T06:49:13;14.90;;;2.60;;
13439;SDS011;6792;57.698;11.946;2023-03-25T06:51:51;17.63;;;3.13;;
13439;SDS011;6792;57.698;11.946;2023-03-25T06:54:23;11.10;;;2.70;;
13439;SDS011;6792;57.698;11.946;2023-03-25T06:56:52;22.10;;;3.77;;
13439;SDS011;6792;57.698;11.946;2023-03-25T06:59:21;14.67;;;2.83;;
13439;SDS011;6792;57.698;11.946;2023-03-25T07:01:51;12.27;;;3.17;;
13439;SDS011;6792;57.698;11.946;2023-03-25T07:04:20;16.43;;;3.70;;
13439;SDS011;6792;57.698;11.946;2023-03-25T07:06:49;20.17;;;3.40;;
13439;SDS011;6792;57.698;11.946;2023-03-25T07:09:18;20.00;;;3.77;;
13439;SDS011;6792;57.698;11.946;2023-03-25T07:11:47;21.30;;;3.47;;
13439;SDS011;6792;57.698;11.946;2023-03-25T07:14:17;13.60;;;3.10;;
13439;SDS011;6792;57.698;11.946;2023-03-25T07:16:46;15.47;;;3.37;;
13439;SDS011;6792;57.698;11.946;2023-03-25T07:19:15;11.57;;;2.60;;
13439;SDS011;6792;57.698;11.946;2023-03-25T07:21:44;22.10;;;3.30;;
13439;SDS011;6792;57.698;11.946;2023-03-25T07:24:13;21.23;;;3.73;;
13439;SDS011;6792;57.698;11.946;2023-03-25T07:26:42;17.53;;;3.60;;
13439;SDS011;6792;57.698;11.946;2023-03-25T07:29:11;14.50;;;3.03;;
13439;SDS011;6792;57.698;11.946;2023-03-25T07:31:41;17.43;;;3.37;;
13439;SDS011;6792;57.698;11.946;2023-03-25T07:34:11;22.10;;;4.17;;
13439;SDS011;6792;57.698;11.946;2023-03-25T07:36:40;14.10;;;2.70;;
13439;SDS011;6792;57.698;11.946;2023-03-25T07:39:09;15.03;;;3.13;;
13439;SDS011;6792;57.698;11.946;2023-03-25T07:41:39;18.30;;;3.00;;
13439;SDS011;6792;57.698;11.946;2023-03-25T07:44:08;25.00;;;3.33;;
13439;SDS011;6792;57.698;11.946;2023-03-25T07:46:37;12.63;;;2.77;;
13439;SDS011;6792;57.698;11.946;2023-03-25T07:49:06;19.00;;;3.73;;
13439;SDS011;6792;57.698;11.946;2023-03-25T07:51:40;14.37;;;2.90;;
13439;SDS011;6792;57.698;11.946;2023-03-25T07:54:12;16.90;;;3.03;;
13439;SDS011;6792;57.698;11.946;2023-03-25T07:56:42;18.17;;;2.83;;
13439;SDS011;6792;57.698;11.946;2023-03-25T07:59:17;17.47;;;3.43;;
13439;SDS011;6792;57.698;11.946;2023-03-25T08:01:46;15.27;;;2.53;;
13439;SDS011;6792;57.698;11.946;2023-03-25T08:04:17;16.20;;;3.57;;
13439;SDS011;6792;57.698;11.946;2023-03-25T08:06:47;18.90;;;3.43;;
13439;SDS011;6792;57.698;11.946;2023-03-25T08:09:20;20.63;;;3.53;;
13439;SDS011;6792;57.698;11.946;2023-03-25T08:11:52;14.73;;;3.20;;
13439;SDS011;6792;57.698;11.946;2023-03-25T08:14:23;14.27;;;3.63;;
13439;SDS011;6792;57.698;11.946;2023-03-25T08:16:52;13.33;;;2.87;;
13439;SDS011;6792;57.698;11.946;2023-03-25T08:19:23;17.37;;;3.70;;
13439;SDS011;6792;57.698;11.946;2023-03-25T08:21:58;18.47;;;3.17;;
13439;SDS011;6792;57.698;11.946;2023-03-25T08:24:29;16.83;;;3.63;;
13439;SDS011;6792;57.698;11.946;2023-03-25T08:27:00;12.53;;;3.20;;
13439;SDS011;6792;57.698;11.946;2023-03-25T08:29:31;16.53;;;3.23;;
13439;SDS011;6792;57.698;11.946;2023-03-25T08:32:01;14.93;;;3.33;;
13439;SDS011;6792;57.698;11.946;2023-03-25T08:34:30;16.63;;;3.13;;
13439;SDS011;6792;57.698;11.946;2023-03-25T08:37:01;13.63;;;2.47;;
13439;SDS011;6792;57.698;11.946;2023-03-25T08:39:30;16.80;;;3.40;;
13439;SDS011;6792;57.698;11.946;2023-03-25T08:42:01;18.53;;;3.33;;
13439;SDS011;6792;57.698;11.946;2023-03-25T08:44:30;20.43;;;3.40;;
13439;SDS011;6792;57.698;11.946;2023-03-25T08:46:59;15.70;;;3.60;;
13439;SDS011;6792;57.698;11.946;2023-03-25T08:49:29;16.40;;;3.20;;
13439;SDS011;6792;57.698;11.946;2023-03-25T08:51:58;11.77;;;2.80;;
13439;SDS011;6792;57.698;11.946;2023-03-25T08:54:27;15.90;;;3.87;;
13439;SDS011;6792;57.698;11.946;2023-03-25T08:56:56;11.57;;;3.20;;
13439;SDS011;6792;57.698;11.946;2023-03-25T08:59:25;17.27;;;4.00;;
13439;SDS011;6792;57.698;11.946;2023-03-25T09:01:55;18.80;;;3.43;;
13439;SDS011;6792;57.698;11.946;2023-03-25T09:04:24;22.73;;;3.57;;
13439;SDS011;6792;57.698;11.946;2023-03-25T09:06:56;20.43;;;3.53;;
13439;SDS011;6792;57.698;11.946;2023-03-25T09:09:25;17.53;;;3.13;;
13439;SDS011;6792;57.698;11.946;2023-03-25T09:11:55;16.43;;;3.20;;
13439;SDS011;6792;57.698;11.946;2023-03-25T09:14:25;19.10;;;3.30;;
13439;SDS011;6792;57.698;11.946;2023-03-25T09:16:54;19.20;;;3.13;;
13439;SDS011;6792;57.698;11.946;2023-03-25T09:19:23;22.27;;;3.63;;
13439;SDS011;6792;57.698;11.946;2023-03-25T09:21:53;17.13;;;3.03;;
13439;SDS011;6792;57.698;11.946;2023-03-25T09:24:22;15.93;;;3.50;;
13439;SDS011;6792;57.698;11.946;2023-03-25T09:26:53;26.23;;;4.20;;
13439;SDS011;6792;57.698;11.946;2023-03-25T09:29:22;14.60;;;3.13;;
13439;SDS011;6792;57.698;11.946;2023-03-25T09:31:51;20.47;;;3.90;;
13439;SDS011;6792;57.698;11.946;2023-03-25T09:34:20;16.67;;;3.80;;
13439;SDS011;6792;57.698;11.946;2023-03-25T09:36:49;25.90;;;5.03;;
13439;SDS011;6792;57.698;11.946;2023-03-25T09:39:18;13.90;;;3.00;;
13439;SDS011;6792;57.698;11.946;2023-03-25T09:41:56;18.50;;;3.63;;
13439;SDS011;6792;57.698;11.946;2023-03-25T09:44:49;25.43;;;3.00;;
13439;SDS011;6792;57.698;11.946;2023-03-25T09:47:21;20.57;;;3.73;;
13439;SDS011;6792;57.698;11.946;2023-03-25T09:49:53;17.33;;;3.43;;
13439;SDS011;6792;57.698;11.946;2023-03-25T09:52:26;18.77;;;4.10;;
13439;SDS011;6792;57.698;11.946;2023-03-25T09:54:57;14.47;;;3.83;;
13439;SDS011;6792;57.698;11.946;2023-03-25T09:57:29;14.93;;;4.30;;
13439;SDS011;6792;57.698;11.946;2023-03-25T10:00:02;16.67;;;3.33;;
13439;SDS011;6792;57.698;11.946;2023-03-25T10:02:37;12.40;;;2.93;;
13439;SDS011;6792;57.698;11.946;2023-03-25T10:05:19;17.90;;;3.67;;
13439;SDS011;6792;57.698;11.946;2023-03-25T10:07:58;22.93;;;3.60;;
13439;SDS011;6792;57.698;11.946;2023-03-25T10:10:35;21.63;;;3.57;;
13439;SDS011;6792;57.698;11.946;2023-03-25T10:13:13;19.10;;;3.80;;
13439;SDS011;6792;57.698;11.946;2023-03-25T10:15:46;18.20;;;3.87;;
13439;SDS011;6792;57.698;11.946;2023-03-25T10:18:22;21.87;;;3.50;;
13439;SDS011;6792;57.698;11.946;2023-03-25T10:21:00;14.13;;;3.03;;
13439;SDS011;6792;57.698;11.946;2023-03-25T10:23:33;24.77;;;4.03;;
13439;SDS011;6792;57.698;11.946;2023-03-25T10:26:07;16.30;;;3.10;;
13439;SDS011;6792;57.698;11.946;2023-03-25T10:28:38;16.90;;;3.10;;
13439;SDS011;6792;57.698;11.946;2023-03-25T10:31:12;14.63;;;3.13;;
13439;SDS011;6792;57.698;11.946;2023-03-25T10:33:43;16.80;;;3.33;;
13439;SDS011;6792;57.698;11.946;2023-03-25T10:36:17;18.93;;;3.40;;
13439;SDS011;6792;57.698;11.946;2023-03-25T10:38:51;16.77;;;3.43;;
13439;SDS011;6792;57.698;11.946;2023-03-25T10:41:24;13.40;;;3.67;;
13439;SDS011;6792;57.698;11.946;2023-03-25T10:43:56;14.70;;;3.60;;
13439;SDS011;6792;57.698;11.946;2023-03-25T10:46:27;17.13;;;3.13;;
13439;SDS011;6792;57.698;11.946;2023-03-25T10:48:57;21.37;;;3.50;;
13439;SDS011;6792;57.698;11.946;2023-03-25T10:51:27;10.90;;;2.93;;
13439;SDS011;6792;57.698;11.946;2023-03-25T10:53:58;18.33;;;3.20;;
13439;SDS011;6792;57.698;11.946;2023-03-25T10:56:29;14.50;;;2.97;;
13439;SDS011;6792;57.698;11.946;2023-03-25T10:59:03;19.53;;;3.00;;
13439;SDS011;6792;57.698;11.946;2023-03-25T11:01:35;15.90;;;2.83;;
13439;SDS011;6792;57.698;11.946;2023-03-25T11:04:07;18.70;;;3.63;;
13439;SDS011;6792;57.698;11.946;2023-03-25T11:06:41;10.10;;;2.80;;
13439;SDS011;6792;57.698;11.946;2023-03-25T11:09:13;15.77;;;3.20;;
13439;SDS011;6792;57.698;11.946;2023-03-25T11:11:44;14.63;;;3.30;;
13439;SDS011;6792;57.698;11.946;2023-03-25T11:14:14;18.00;;;3.57;;
13439;SDS011;6792;57.698;11.946;2023-03-25T11:16:45;15.00;;;2.67;;
13439;SDS011;6792;57.698;11.946;2023-03-25T11:19:19;17.17;;;3.23;;
13439;SDS011;6792;57.698;11.946;2023-03-25T11:21:52;12.43;;;2.10;;
13439;SDS011;6792;57.698;11.946;2023-03-25T11:24:23;16.23;;;3.30;;
13439;SDS011;6792;57.698;11.946;2023-03-25T11:26:56;16.53;;;3.23;;
13439;SDS011;6792;57.698;11.946;2023-03-25T11:29:25;18.70;;;3.07;;
13439;SDS011;6792;57.698;11.946;2023-03-25T11:32:04;10.27;;;2.97;;
13439;SDS011;6792;57.698;11.946;2023-03-25T11:34:35;14.87;;;3.43;;
13439;SDS011;6792;57.698;11.946;2023-03-25T11:37:14;13.87;;;2.73;;
13439;SDS011;6792;57.698;11.946;2023-03-25T11:39:44;18.37;;;3.60;;
13439;SDS011;6792;57.698;11.946;2023-03-25T11:42:21;15.40;;;3.17;;
13439;SDS011;6792;57.698;11.946;2023-03-25T11:44:55;16.33;;;3.13;;
13439;SDS011;6792;57.698;11.946;2023-03-25T11:47:25;18.07;;;3.20;;
13439;SDS011;6792;57.698;11.946;2023-03-25T11:49:57;12.23;;;2.97;;
13439;SDS011;6792;57.698;11.946;2023-03-25T11:52:28;9.43;;;2.70;;
13439;SDS011;6792;57.698;11.946;2023-03-25T11:55:01;15.47;;;3.17;;
13439;SDS011;6792;57.698;11.946;2023-03-25T11:57:32;13.30;;;2.77;;
13439;SDS011;6792;57.698;11.946;2023-03-25T12:00:05;10.70;;;2.87;;
13439;SDS011;6792;57.698;11.946;2023-03-25T12:02:39;9.40;;;2.30;;
13439;SDS011;6792;57.698;11.946;2023-03-25T12:05:12;13.47;;;2.53;;
13439;SDS011;6792;57.698;11.946;2023-03-25T12:07:43;15.70;;;2.70;;
13439;SDS011;6792;57.698;11.946;2023-03-25T12:10:17;13.67;;;2.50;;
13439;SDS011;6792;57.698;11.946;2023-03-25T12:12:51;10.97;;;2.57;;
13439;SDS011;6792;57.698;11.946;2023-03-25T12:15:28;8.47;;;1.90;;
13439;SDS011;6792;57.698;11.946;2023-03-25T12:18:08;10.50;;;2.40;;
13439;SDS011;6792;57.698;11.946;2023-03-25T12:20:45;12.63;;;2.40;;
13439;SDS011;6792;57.698;11.946;2023-03-25T12:23:19;9.80;;;2.57;;
13439;SDS011;6792;57.698;11.946;2023-03-25T12:25:53;12.37;;;2.90;;
13439;SDS011;6792;57.698;11.946;2023-03-25T12:28:35;8.70;;;2.20;;
13439;SDS011;6792;57.698;11.946;2023-03-25T12:31:13;12.67;;;2.90;;
13439;SDS011;6792;57.698;11.946;2023-03-25T12:33:54;9.90;;;2.40;;
13439;SDS011;6792;57.698;11.946;2023-03-25T12:36:40;9.67;;;2.33;;
13439;SDS011;6792;57.698;11.946;2023-03-25T12:39:23;7.43;;;2.40;;
13439;SDS011;6792;57.698;11.946;2023-03-25T12:41:58;10.13;;;2.43;;
13439;SDS011;6792;57.698;11.946;2023-03-25T12:44:36;9.50;;;2.77;;
13439;SDS011;6792;57.698;11.946;2023-03-25T12:47:16;6.43;;;2.70;;
13439;SDS011;6792;57.698;11.946;2023-03-25T12:49:53;9.57;;;2.53;;
13439;SDS011;6792;57.698;11.946;2023-03-25T12:52:34;7.23;;;2.50;;
13439;SDS011;6792;57.698;11.946;2023-03-25T12:55:14;10.97;;;1.97;;
13439;SDS011;6792;57.698;11.946;2023-03-25T12:57:53;8.43;;;2.50;;
13439;SDS011;6792;57.698;11.946;2023-03-25T13:00:37;10.63;;;2.43;;
13439;SDS011;6792;57.698;11.946;2023-03-25T13:03:34;14.17;;;3.13;;
13439;SDS011;6792;57.698;11.946;2023-03-25T13:06:16;16.60;;;3.90;;
13439;SDS011;6792;57.698;11.946;2023-03-25T13:08:50;10.70;;;2.67;;
13439;SDS011;6792;57.698;11.946;2023-03-25T13:11:22;11.53;;;3.00;;
13439;SDS011;6792;57.698;11.946;2023-03-25T13:13:55;18.83;;;3.57;;
13439;SDS011;6792;57.698;11.946;2023-03-25T13:16:27;9.53;;;3.00;;
13439;SDS011;6792;57.698;11.946;2023-03-25T13:19:00;13.47;;;3.17;;
13439;SDS011;6792;57.698;11.946;2023-03-25T13:21:32;18.07;;;3.93;;
13439;SDS011;6792;57.698;11.946;2023-03-25T13:24:04;13.13;;;3.60;;
13439;SDS011;6792;57.698;11.946;2023-03-25T13:26:41;14.57;;;3.43;;
13439;SDS011;6792;57.698;11.946;2023-03-25T13:29:12;25.73;;;4.13;;
13439;SDS011;6792;57.698;11.946;2023-03-25T13:31:47;22.83;;;3.97;;
13439;SDS011;6792;57.698;11.946;2023-03-25T13:34:19;8.07;;;3.43;;
13439;SDS011;6792;57.698;11.946;2023-03-25T13:36:55;23.07;;;4.03;;
13439;SDS011;6792;57.698;11.946;2023-03-25T13:39:31;16.17;;;4.30;;
13439;SDS011;6792;57.698;11.946;2023-03-25T13:42:04;13.37;;;3.67;;
13439;SDS011;6792;57.698;11.946;2023-03-25T13:44:35;11.90;;;4.33;;
13439;SDS011;6792;57.698;11.946;2023-03-25T13:47:12;16.97;;;3.87;;
13439;SDS011;6792;57.698;11.946;2023-03-25T13:49:44;24.17;;;4.57;;
13439;SDS011;6792;57.698;11.946;2023-03-25T13:52:15;17.67;;;4.13;;
13439;SDS011;6792;57.698;11.946;2023-03-25T13:54:45;21.57;;;5.17;;
13439;SDS011;6792;57.698;11.946;2023-03-25T13:57:23;13.63;;;4.10;;
13439;SDS011;6792;57.698;11.946;2023-03-25T14:00:47;14.07;;;3.33;;
13439;SDS011;6792;57.698;11.946;2023-03-25T14:03:27;17.67;;;3.67;;
13439;SDS011;6792;57.698;11.946;2023-03-25T14:06:18;16.07;;;3.70;;
13439;SDS011;6792;57.698;11.946;2023-03-25T14:09:13;18.03;;;3.63;;
13439;SDS011;6792;57.698;11.946;2023-03-25T14:11:54;17.30;;;3.87;;
13439;SDS011;6792;57.698;11.946;2023-03-25T14:14:25;17.70;;;3.83;;
13439;SDS011;6792;57.698;11.946;2023-03-25T14:16:56;14.43;;;3.30;;
13439;SDS011;6792;57.698;11.946;2023-03-25T14:19:28;14.83;;;4.17;;
13439;SDS011;6792;57.698;11.946;2023-03-25T14:21:59;13.63;;;3.93;;
13439;SDS011;6792;57.698;11.946;2023-03-25T14:24:34;15.40;;;3.60;;
13439;SDS011;6792;57.698;11.946;2023-03-25T14:27:04;10.60;;;3.07;;
13439;SDS011;6792;57.698;11.946;2023-03-25T14:29:42;16.73;;;3.83;;
13439;SDS011;6792;57.698;11.946;2023-03-25T14:32:30;10.27;;;3.10;;
13439;SDS011;6792;57.698;11.946;2023-03-25T14:44:27;8.83;;;2.93;;
13439;SDS011;6792;57.698;11.946;2023-03-25T14:47:16;11.60;;;3.77;;
13439;SDS011;6792;57.698;11.946;2023-03-25T14:49:51;12.60;;;3.03;;
13439;SDS011;6792;57.698;11.946;2023-03-25T14:52:27;16.87;;;3.83;;
13439;SDS011;6792;57.698;11.946;2023-03-25T14:54:58;17.33;;;3.10;;
13439;SDS011;6792;57.698;11.946;2023-03-25T14:57:31;7.40;;;1.63;;
13439;SDS011;6792;57.698;11.946;2023-03-25T15:00:02;4.63;;;1.40;;
13439;SDS011;6792;57.698;11.946;2023-03-25T15:02:37;6.57;;;1.63;;
13439;SDS011;6792;57.698;11.946;2023-03-25T15:05:13;2.70;;;1.00;;
13439;SDS011;6792;57.698;11.946;2023-03-25T15:07:46;1.40;;;0.90;;
13439;SDS011;6792;57.698;11.946;2023-03-25T15:10:23;3.17;;;1.00;;
13439;SDS011;6792;57.698;11.946;2023-03-25T15:12:58;3.27;;;0.93;;
13439;SDS011;6792;57.698;11.946;2023-03-25T15:15:30;2.77;;;0.90;;
13439;SDS011;6792;57.698;11.946;2023-03-25T15:18:01;2.17;;;0.70;;
13439;SDS011;6792;57.698;11.946;2023-03-25T15:20:32;1.60;;;1.00;;
13439;SDS011;6792;57.698;11.946;2023-03-25T15:25:51;2.00;;;0.43;;